Time;durP1;ratioP1;P1;durP2;ratioP2;P2;SDS_P1;SDS_P2;PMS_P1;PMS_P2;Temp;Humidity;BMP_temperature;BMP_pressure;BME280_temperature;BME280_humidity;BME280_pressure;Samples;Min_cycle;Max_cycle;Signal;HPM_P1;HPM_P2
2023/04/02 00:00:35;;;;;;;;;;;;;;;17.93;60.36;100498.63;2339643;75;51542;-75
2023/04/02 00:03:42;;;;;;;;;;;;;;;18.01;59.58;100495.03;2298575;76;50737;-75
2023/04/02 00:06:44;;;;;;;;;;;;;;;18.02;59.53;100512.23;2316694;76;50185;-74
2023/04/02 00:09:45;;;;;;;;;;;;;;;18.03;59.45;100513.91;2344302;75;50094;-75
2023/04/02 00:12:49;;;;;;;;;;;;;;;18.03;59.49;100520.61;2324424;76;50648;-72
2023/04/02 00:15:51;;;;;;;;;;;;;;;18.04;59.57;100524.11;2320873;75;50501;-75
2023/04/02 00:18:54;;;;;;;;;;;;;;;17.94;60.11;100528.37;2319277;76;51487;-77
2023/04/02 00:21:55;;;;;;;;;;;;;;;17.89;60.26;100521.40;2318870;76;50081;-75
2023/04/02 00:24:57;;;;;;;;;;;;;;;17.86;60.33;100525.78;2319079;76;52550;-75
2023/04/02 00:27:59;;;;;;;;;;;;;;;17.84;60.36;100529.97;2342577;75;50786;-75
2023/04/02 00:31:00;;;;;;;;;;;;;;;17.86;60.36;100534.33;2317037;76;51440;-75
2023/04/02 00:34:03;;;;;;;;;;;;;;;17.84;60.24;100543.34;2311917;76;51529;-74
2023/04/02 00:37:05;;;;;;;;;;;;;;;17.91;59.47;100543.47;2319355;76;50354;-75
2023/04/02 00:40:18;;;;;;;;;;;;;;;17.98;59.32;100550.25;2318948;76;51516;-76
2023/04/02 00:43:19;;;;;;;;;;;;;;;18.02;59.17;100548.89;2319074;76;55012;-76
2023/04/02 00:46:22;;;;;;;;;;;;;;;18.05;58.96;100562.73;2342855;75;50982;-74
2023/04/02 00:49:26;;;;;;;;;;;;;;;18.06;59.00;100556.38;2319122;76;51561;-74
2023/04/02 00:52:29;;;;;;;;;;;;;;;18.06;58.94;100564.41;2319201;75;51451;-74
2023/04/02 00:55:37;;;;;;;;;;;;;;;18.06;58.92;100572.95;2316668;76;50318;-75
2023/04/02 00:58:39;;;;;;;;;;;;;;;18.05;58.89;100572.10;2340875;76;52627;-76
2023/04/02 01:01:41;;;;;;;;;;;;;;;18.02;58.93;100572.47;2334962;74;51628;-75
2023/04/02 01:04:43;;;;;;;;;;;;;;;17.98;59.08;100577.88;2333750;76;50707;-75
2023/04/02 01:07:58;;;;;;;;;;;;;;;17.95;59.36;100568.84;2336672;76;52346;-76
2023/04/02 01:11:01;;;;;;;;;;;;;;;17.91;59.54;100579.61;2288232;77;51318;-75
2023/04/02 01:14:21;;;;;;;;;;;;;;;17.90;59.48;100585.95;2288533;77;50142;-75
2023/04/02 01:17:41;;;;;;;;;;;;;;;17.89;59.60;100592.84;2288538;77;50458;-75
2023/04/02 01:20:47;;;;;;;;;;;;;;;17.83;59.68;100599.24;2288342;77;51527;-75
2023/04/02 01:24:03;;;;;;;;;;;;;;;17.82;59.74;100608.77;2262876;77;51778;-75
2023/04/02 01:27:09;;;;;;;;;;;;;;;17.80;59.76;100612.12;2288179;77;50328;-75
2023/04/02 01:30:11;;;;;;;;;;;;;;;17.78;59.76;100608.80;2278080;77;50727;-74
2023/04/02 01:33:12;;;;;;;;;;;;;;;17.79;59.73;100619.81;2232240;78;50419;-75
2023/04/02 01:36:16;;;;;;;;;;;;;;;17.77;59.69;100620.48;2289099;77;50245;-75
2023/04/02 01:39:28;;;;;;;;;;;;;;;17.77;59.73;100629.86;2287507;77;51466;-75
2023/04/02 01:42:37;;;;;;;;;;;;;;;17.78;59.69;100634.22;2288844;77;50277;-75
2023/04/02 01:45:39;;;;;;;;;;;;;;;17.87;59.08;100634.50;2274340;76;50690;-75
2023/04/02 01:48:41;;;;;;;;;;;;;;;17.91;58.70;100647.87;2278236;77;52530;-75
2023/04/02 01:51:43;;;;;;;;;;;;;;;17.95;58.51;100639.79;2336666;75;50344;-74
2023/04/02 01:54:46;;;;;;;;;;;;;;;18.00;58.43;100645.95;2319146;76;51478;-75
2023/04/02 01:57:48;;;;;;;;;;;;;;;18.03;58.26;100655.81;2341209;76;50722;-74
2023/04/02 02:00:50;;;;;;;;;;;;;;;18.02;58.28;100659.48;2356557;74;51247;-74
2023/04/02 02:03:52;;;;;;;;;;;;;;;18.01;58.19;100669.88;2326353;75;51479;-75
2023/04/02 02:06:53;;;;;;;;;;;;;;;18.03;58.13;100671.02;2341238;75;51509;-75
2023/04/02 02:09:55;;;;;;;;;;;;;;;18.01;58.05;100676.58;2340909;75;50221;-73
2023/04/02 02:12:59;;;;;;;;;;;;;;;18.01;57.96;100686.45;2365303;73;51193;-75
2023/04/02 02:16:00;;;;;;;;;;;;;;;18.05;57.94;100693.93;2364887;75;50392;-74
2023/04/02 02:19:02;;;;;;;;;;;;;;;18.01;58.06;100689.96;2341048;75;50826;-75
2023/04/02 02:22:15;;;;;;;;;;;;;;;17.95;58.27;100701.36;2340863;76;51460;-75
2023/04/02 02:25:18;;;;;;;;;;;;;;;18.02;58.02;100708.19;2337903;75;51282;-75
2023/04/02 02:28:33;;;;;;;;;;;;;;;18.02;58.02;100706.34;2341200;74;50350;-75
2023/04/02 02:31:34;;;;;;;;;;;;;;;17.92;58.58;100715.11;2310577;76;50680;-75
2023/04/02 02:34:38;;;;;;;;;;;;;;;17.85;58.80;100720.83;2297375;77;50319;-75
2023/04/02 02:37:41;;;;;;;;;;;;;;;17.82;58.87;100719.85;2266241;77;51301;-75
2023/04/02 02:40:43;;;;;;;;;;;;;;;17.79;58.94;100725.53;2336798;75;50647;-74
2023/04/02 02:43:46;;;;;;;;;;;;;;;17.77;58.98;100731.05;2318987;76;50400;-75
2023/04/02 02:46:49;;;;;;;;;;;;;;;17.76;59.04;100736.08;2341169;75;50302;-74
2023/04/02 02:49:56;;;;;;;;;;;;;;;17.76;59.01;100744.11;2364716;74;51255;-75
2023/04/02 02:52:58;;;;;;;;;;;;;;;17.79;58.96;100750.48;2341032;75;51547;-75
2023/04/02 02:56:00;;;;;;;;;;;;;;;17.82;58.53;100748.78;2341069;74;50455;-75
2023/04/02 02:59:02;;;;;;;;;;;;;;;17.87;58.33;100756.30;2341104;76;50280;-76
2023/04/02 03:02:03;;;;;;;;;;;;;;;17.93;58.22;100760.97;2334891;75;52331;-74
2023/04/02 03:05:06;;;;;;;;;;;;;;;17.99;58.08;100761.59;2295029;77;51467;-75
2023/04/02 03:08:09;;;;;;;;;;;;;;;18.02;57.99;100774.62;2278160;77;50796;-75
2023/04/02 03:11:16;;;;;;;;;;;;;;;18.04;57.85;100773.94;2296673;77;50447;-75
2023/04/02 03:14:19;;;;;;;;;;;;;;;18.04;57.74;100789.17;2265946;77;50928;-75
2023/04/02 03:17:22;;;;;;;;;;;;;;;18.03;57.58;100797.72;2288784;77;51458;-77
2023/04/02 03:20:28;;;;;;;;;;;;;;;18.02;57.52;100797.38;2296797;77;51619;-74
2023/04/02 03:23:34;;;;;;;;;;;;;;;18.03;57.51;100810.25;2336543;76;52250;-75
2023/04/02 03:26:38;;;;;;;;;;;;;;;18.00;57.39;100813.28;2297029;77;51654;-76
2023/04/02 03:29:41;;;;;;;;;;;;;;;17.99;57.48;100823.16;2296819;77;50288;-75
2023/04/02 03:32:42;;;;;;;;;;;;;;;17.96;57.61;100829.39;2299861;76;50291;-75
2023/04/02 03:35:45;;;;;;;;;;;;;;;17.98;57.42;100832.22;2295139;77;50662;-75
2023/04/02 03:38:50;;;;;;;;;;;;;;;17.98;57.19;100832.70;2311144;76;51760;-76
2023/04/02 03:41:56;;;;;;;;;;;;;;;17.98;57.29;100839.39;2340619;76;51543;-74
2023/04/02 03:44:59;;;;;;;;;;;;;;;18.03;57.16;100846.40;2341099;76;51539;-74
2023/04/02 03:48:02;;;;;;;;;;;;;;;18.01;57.29;100845.25;2341018;76;50425;-75
2023/04/02 03:51:05;;;;;;;;;;;;;;;17.89;57.84;100853.33;2340480;76;51522;-75
2023/04/02 03:54:08;;;;;;;;;;;;;;;17.83;58.04;100853.52;2337699;76;50252;-75
2023/04/02 03:57:26;;;;;;;;;;;;;;;17.80;58.17;100869.08;2341087;76;51608;-75
2023/04/02 04:00:36;;;;;;;;;;;;;;;17.76;58.25;100863.72;2340820;76;50776;-75
2023/04/02 04:03:42;;;;;;;;;;;;;;;17.75;58.31;100863.38;2348610;75;52425;-74
2023/04/02 04:06:44;;;;;;;;;;;;;;;17.80;58.15;100873.09;2341116;75;51473;-75
2023/04/02 04:09:46;;;;;;;;;;;;;;;17.84;57.49;100884.63;2340975;76;50799;-74
2023/04/02 04:12:48;;;;;;;;;;;;;;;17.91;57.36;100882.11;2341104;75;50351;-74
2023/04/02 04:15:54;;;;;;;;;;;;;;;17.96;57.15;100897.14;2365208;75;52393;-77
2023/04/02 04:19:16;;;;;;;;;;;;;;;18.01;57.08;100904.16;2341191;76;51571;-74
2023/04/02 04:22:30;;;;;;;;;;;;;;;18.02;56.77;100903.14;2341358;75;22404;-74
2023/04/02 04:25:35;;;;;;;;;;;;;;;18.01;56.58;100908.17;2341245;75;50310;-74
2023/04/02 04:28:45;;;;;;;;;;;;;;;18.01;56.65;100916.72;2365381;75;52486;-73
2023/04/02 04:31:54;;;;;;;;;;;;;;;17.99;56.64;100922.23;2337859;74;51736;-75
2023/04/02 04:34:52;;;;;;;;;;;;;;;17.98;56.56;100921.05;2339697;75;22310;-75
2023/04/02 04:37:57;;;;;;;;;;;;;;;17.96;56.60;100931.95;2341178;76;50374;-75
2023/04/02 04:41:19;;;;;;;;;;;;;;;17.96;56.64;100935.97;2311015;76;51036;-75
2023/04/02 04:44:26;;;;;;;;;;;;;;;17.91;57.09;100946.86;2341196;76;51559;-76
2023/04/02 04:47:29;;;;;;;;;;;;;;;17.93;56.76;100953.72;2341173;76;51467;-75
2023/04/02 04:50:32;;;;;;;;;;;;;;;17.94;56.68;100961.23;2340477;76;50725;-75
2023/04/02 04:53:34;;;;;;;;;;;;;;;17.95;56.57;100961.05;2341157;76;51807;-75
2023/04/02 04:56:36;;;;;;;;;;;;;;;17.95;56.63;100965.06;2337942;76;51352;-75
2023/04/02 04:59:51;;;;;;;;;;;;;;;17.95;56.68;100968.25;2337729;76;51504;-74
2023/04/02 05:03:02;;;;;;;;;;;;;;;17.93;56.59;100980.48;2323804;76;50765;-75
2023/04/02 05:06:05;;;;;;;;;;;;;;;17.89;56.81;100976.47;2340847;76;51809;-74
2023/04/02 05:09:26;;;;;;;;;;;;;;;17.82;57.31;100989.69;2340593;76;51485;-76
2023/04/02 05:12:41;;;;;;;;;;;;;;;17.78;57.48;100990.19;2340780;76;50752;-74
2023/04/02 05:15:45;;;;;;;;;;;;;;;17.74;57.61;100998.20;2341202;76;51523;-74
2023/04/02 05:18:48;;;;;;;;;;;;;;;17.76;57.49;101005.58;2337899;76;51721;-74
2023/04/02 05:21:51;;;;;;;;;;;;;;;17.80;56.97;101005.58;2340913;76;51677;-76
2023/04/02 05:24:58;;;;;;;;;;;;;;;17.84;56.82;101009.61;2341392;76;50490;-74
2023/04/02 05:28:01;;;;;;;;;;;;;;;17.92;56.79;101020.80;2341399;76;50705;-74
2023/04/02 05:31:06;;;;;;;;;;;;;;;17.99;56.68;101023.97;2337640;76;51297;-75
2023/04/02 05:34:08;;;;;;;;;;;;;;;18.02;56.59;101028.98;2329900;76;51503;-75
2023/04/02 05:37:16;;;;;;;;;;;;;;;18.02;56.61;101032.17;2324123;76;51503;-76
2023/04/02 05:40:22;;;;;;;;;;;;;;;18.00;56.62;101037.68;2323991;76;22326;-76
2023/04/02 05:43:24;;;;;;;;;;;;;;;18.00;56.66;101044.38;2349938;75;52442;-75
2023/04/02 05:46:26;;;;;;;;;;;;;;;17.98;56.68;101046.41;2324075;76;51568;-76
2023/04/02 05:49:30;;;;;;;;;;;;;;;17.96;56.74;101052.43;2323813;76;50819;-75
2023/04/02 05:52:33;;;;;;;;;;;;;;;17.95;56.74;101054.75;2323583;76;50785;-76
2023/04/02 05:55:39;;;;;;;;;;;;;;;17.96;56.75;101059.63;2323726;76;51571;-75
2023/04/02 05:58:43;;;;;;;;;;;;;;;17.96;56.82;101065.81;2323803;76;50509;-74
2023/04/02 06:01:46;;;;;;;;;;;;;;;18.02;56.79;101067.81;2335141;75;51539;-74
2023/04/02 06:04:55;;;;;;;;;;;;;;;18.14;56.45;101078.19;2341317;74;51604;-74
2023/04/02 06:07:58;;;;;;;;;;;;;;;18.18;56.37;101088.88;2337955;75;52350;-75
2023/04/02 06:11:01;;;;;;;;;;;;;;;18.15;56.28;101087.89;2341400;75;50823;-75
2023/04/02 06:14:03;;;;;;;;;;;;;;;18.16;56.20;101092.22;2341497;74;50480;-74
2023/04/02 06:17:05;;;;;;;;;;;;;;;18.11;56.35;101102.13;2341314;74;51566;-74
2023/04/02 06:20:08;;;;;;;;;;;;;;;18.10;56.37;101100.95;2364977;75;50499;-74
2023/04/02 06:23:18;;;;;;;;;;;;;;;18.06;56.38;101107.16;2341233;76;50367;-75
2023/04/02 06:26:38;;;;;;;;;;;;;;;18.05;56.56;101111.65;2339071;75;51711;-74
2023/04/02 06:29:41;;;;;;;;;;;;;;;17.97;57.52;101126.38;2341217;76;49976;-74
2023/04/02 06:32:43;;;;;;;;;;;;;;;17.99;56.66;101120.36;2366032;74;51013;-75
2023/04/02 06:35:46;;;;;;;;;;;;;;;18.05;56.76;101124.20;2366324;74;51505;-73
2023/04/02 06:38:47;;;;;;;;;;;;;;;18.17;56.58;101135.43;2346262;74;50513;-74
2023/04/02 06:42:02;;;;;;;;;;;;;;;18.24;56.40;101144.47;2342381;75;50743;-74
2023/04/02 06:45:04;;;;;;;;;;;;;;;18.33;56.08;101146.12;2342257;75;50402;-74
2023/04/02 06:48:05;;;;;;;;;;;;;;;18.37;55.93;101154.16;2367101;74;50680;-74
2023/04/02 06:51:08;;;;;;;;;;;;;;;18.36;55.80;101151.13;2368733;74;50679;-75
2023/04/02 06:54:11;;;;;;;;;;;;;;;18.32;55.94;101160.53;2342498;76;50766;-75
2023/04/02 06:57:13;;;;;;;;;;;;;;;18.36;55.85;101164.53;2344425;74;51247;-73
2023/04/02 07:00:28;;;;;;;;;;;;;;;18.40;55.68;101169.89;2343408;74;50702;-73
2023/04/02 07:03:30;;;;;;;;;;;;;;;18.35;55.72;101165.55;2345410;75;50869;-73
2023/04/02 07:06:32;;;;;;;;;;;;;;;18.36;55.88;101176.58;2341988;76;50701;-72
2023/04/02 07:09:33;;;;;;;;;;;;;;;18.37;55.89;101182.30;2341337;76;50370;-73
2023/04/02 07:12:35;;;;;;;;;;;;;;;18.30;55.88;101185.30;2339019;76;50686;-73
2023/04/02 07:15:36;;;;;;;;;;;;;;;18.35;55.68;101185.64;2341266;76;51501;-74
2023/04/02 07:18:38;;;;;;;;;;;;;;;18.36;55.81;101181.94;2338030;76;50754;-73
2023/04/02 07:21:40;;;;;;;;;;;;;;;18.30;55.89;101201.38;2340683;76;52440;-75
2023/04/02 07:24:41;;;;;;;;;;;;;;;18.32;56.00;101190.52;2338299;76;51407;-75
2023/04/02 07:27:43;;;;;;;;;;;;;;;18.31;55.81;101195.01;2341910;76;50049;-74
2023/04/02 07:30:44;;;;;;;;;;;;;;;18.28;55.91;101200.70;2337424;76;52091;-74
2023/04/02 07:33:46;;;;;;;;;;;;;;;18.20;55.82;101200.70;2321849;76;52535;-74
2023/04/02 07:36:48;;;;;;;;;;;;;;;18.19;56.04;101205.74;2297053;77;51646;-74
2023/04/02 07:39:49;;;;;;;;;;;;;;;18.17;55.87;101208.58;2296823;76;51534;-73
2023/04/02 07:42:51;;;;;;;;;;;;;;;18.17;56.26;101210.42;2297184;77;50673;-73
2023/04/02 07:45:53;;;;;;;;;;;;;;;18.28;56.18;101214.93;2296692;77;51778;-73
2023/04/02 07:48:54;;;;;;;;;;;;;;;18.29;56.02;101221.16;2277874;77;51548;-73
2023/04/02 07:51:56;;;;;;;;;;;;;;;18.31;56.05;101230.34;2277796;77;50534;-75
2023/04/02 07:54:57;;;;;;;;;;;;;;;18.34;56.27;101239.38;2278144;77;51610;-74
2023/04/02 07:57:59;;;;;;;;;;;;;;;18.31;56.39;101239.20;2296759;77;52514;-74
2023/04/02 08:01:02;;;;;;;;;;;;;;;18.30;56.35;101248.77;2286967;76;50778;-74
2023/04/02 08:04:04;;;;;;;;;;;;;;;18.28;56.39;101253.77;2271788;77;51591;-74
2023/04/02 08:07:06;;;;;;;;;;;;;;;18.27;56.43;101263.33;2283918;78;51560;-74
2023/04/02 08:10:08;;;;;;;;;;;;;;;18.20;56.50;101263.66;2284484;77;51672;-74
2023/04/02 08:13:10;;;;;;;;;;;;;;;18.18;56.48;101273.69;2277207;78;51510;-74
2023/04/02 08:16:12;;;;;;;;;;;;;;;18.12;56.52;101273.02;2316193;77;50076;-73
2023/04/02 08:19:14;;;;;;;;;;;;;;;18.10;56.52;101275.85;2290077;76;50765;-74
2023/04/02 08:22:15;;;;;;;;;;;;;;;18.05;56.56;101279.02;2315680;76;52421;-74
2023/04/02 08:25:17;;;;;;;;;;;;;;;18.01;56.69;101281.70;2319123;76;52330;-74
2023/04/02 08:28:20;;;;;;;;;;;;;;;18.02;56.79;101283.88;2342714;75;51437;-74
2023/04/02 08:31:22;;;;;;;;;;;;;;;17.94;58.06;101283.86;2325896;76;50517;-74
2023/04/02 08:34:23;;;;;;;;;;;;;;;17.92;58.16;101286.69;2319622;76;51513;-75
2023/04/02 08:37:25;;;;;;;;;;;;;;;17.89;58.48;101300.41;2319042;76;51405;-74
2023/04/02 08:40:28;;;;;;;;;;;;;;;17.89;58.57;101309.77;2342593;75;51625;-74
2023/04/02 08:43:41;;;;;;;;;;;;;;;17.90;58.66;101299.90;2318971;75;50306;-74
2023/04/02 08:46:44;;;;;;;;;;;;;;;18.01;57.83;101304.46;2290602;76;52440;-72
2023/04/02 08:49:50;;;;;;;;;;;;;;;18.02;57.59;101311.48;2318809;76;50928;-75
2023/04/02 08:52:51;;;;;;;;;;;;;;;18.22;57.22;101320.58;2319135;76;51486;-77
2023/04/02 08:56:16;;;;;;;;;;;;;;;18.28;57.12;101327.44;2319184;76;51590;-76
2023/04/02 08:59:19;;;;;;;;;;;;;;;18.34;57.01;101325.11;2320124;75;22321;-75
2023/04/02 09:02:40;;;;;;;;;;;;;;;18.38;56.89;101335.34;2330709;76;50470;-76
2023/04/02 09:05:42;;;;;;;;;;;;;;;18.38;56.84;101345.22;2333342;76;50377;-74
2023/04/02 09:08:45;;;;;;;;;;;;;;;18.28;56.97;101347.53;2336508;76;51511;-75
2023/04/02 09:11:48;;;;;;;;;;;;;;;18.28;57.00;101351.55;2323873;76;51284;-75
2023/04/02 09:14:54;;;;;;;;;;;;;;;18.28;56.97;101361.44;2336538;76;50511;-76
2023/04/02 09:17:57;;;;;;;;;;;;;;;18.27;56.92;101367.81;2336091;76;50675;-76
2023/04/02 09:20:58;;;;;;;;;;;;;;;18.25;56.98;101367.12;2330260;76;51608;-76
2023/04/02 09:24:00;;;;;;;;;;;;;;;18.24;56.87;101372.99;2336591;76;50286;-76
2023/04/02 09:27:01;;;;;;;;;;;;;;;18.18;56.90;101375.47;2330617;76;50418;-74
2023/04/02 09:30:07;;;;;;;;;;;;;;;18.21;56.75;101368.44;2336304;76;49970;-75
2023/04/02 09:33:08;;;;;;;;;;;;;;;18.21;56.83;101369.78;2330573;76;53165;-77
2023/04/02 09:36:11;;;;;;;;;;;;;;;18.15;57.31;101375.80;2311959;76;52581;-75
2023/04/02 09:39:15;;;;;;;;;;;;;;;18.08;57.64;101381.46;2280029;77;51617;-76
2023/04/02 09:42:30;;;;;;;;;;;;;;;17.98;57.98;101390.48;2293549;76;50331;-77
2023/04/02 09:45:32;;;;;;;;;;;;;;;17.94;58.07;101397.65;2293751;77;50498;-75
2023/04/02 09:48:34;;;;;;;;;;;;;;;17.92;58.17;101401.81;2290362;77;51256;-75
2023/04/02 09:51:37;;;;;;;;;;;;;;;17.92;58.17;101402.32;2293590;76;51692;-75
2023/04/02 09:54:43;;;;;;;;;;;;;;;17.96;57.68;101411.22;2293845;77;50460;-75
2023/04/02 09:57:42;;;;;;;;;;;;;;;18.01;57.34;101410.74;2293539;77;22309;-76
2023/04/02 10:00:50;;;;;;;;;;;;;;;18.11;57.04;101415.95;2289618;76;51825;-76
2023/04/02 10:03:52;;;;;;;;;;;;;;;18.25;56.58;101422.05;2276217;77;51534;-76
2023/04/02 10:06:56;;;;;;;;;;;;;;;18.34;56.33;101426.44;2283806;78;50258;-77
2023/04/02 10:10:15;;;;;;;;;;;;;;;18.34;56.18;101428.26;2301760;77;22279;-75
2023/04/02 10:13:18;;;;;;;;;;;;;;;18.36;56.01;101429.77;2289887;76;51191;-76
2023/04/02 10:16:25;;;;;;;;;;;;;;;18.37;55.97;101438.17;2319070;76;51458;-77
2023/04/02 10:19:34;;;;;;;;;;;;;;;18.39;55.83;101454.90;2318919;76;51595;-76
2023/04/02 10:22:35;;;;;;;;;;;;;;;18.38;55.87;101451.06;2319084;76;51490;-76
2023/04/02 10:25:39;;;;;;;;;;;;;;;18.38;55.80;101445.70;2315938;76;52430;-74
2023/04/02 10:28:45;;;;;;;;;;;;;;;18.38;55.86;101451.06;2319116;76;50805;-75
2023/04/02 10:31:51;;;;;;;;;;;;;;;18.38;55.84;101457.25;2327951;75;50447;-74
2023/04/02 10:34:54;;;;;;;;;;;;;;;18.33;56.06;101458.74;2321212;76;50356;-75
2023/04/02 10:37:57;;;;;;;;;;;;;;;18.31;56.11;101457.55;2290099;76;51433;-75
2023/04/02 10:41:00;;;;;;;;;;;;;;;18.25;56.27;101466.25;2320719;76;51933;-75
2023/04/02 10:44:06;;;;;;;;;;;;;;;18.16;56.51;101462.70;2319271;76;50753;-74
2023/04/02 10:47:10;;;;;;;;;;;;;;;18.08;57.34;101460.47;2318895;76;50699;-75
2023/04/02 10:50:16;;;;;;;;;;;;;;;18.01;57.62;101473.16;2315701;76;52613;-74
2023/04/02 10:53:20;;;;;;;;;;;;;;;17.97;57.76;101482.50;2319069;76;50741;-74
2023/04/02 10:56:21;;;;;;;;;;;;;;;17.94;57.87;101482.83;2319103;76;50553;-75
2023/04/02 10:59:24;;;;;;;;;;;;;;;17.92;57.95;101492.84;2318997;76;51410;-75
2023/04/02 11:02:27;;;;;;;;;;;;;;;17.94;57.92;101493.53;2355217;75;51033;-75
2023/04/02 11:05:39;;;;;;;;;;;;;;;17.98;57.53;101501.61;2336513;76;51621;-75
2023/04/02 11:08:41;;;;;;;;;;;;;;;18.03;57.21;101496.62;2336878;76;22345;-75
2023/04/02 11:11:43;;;;;;;;;;;;;;;18.17;56.94;101506.39;2336337;76;51549;-74
2023/04/02 11:14:45;;;;;;;;;;;;;;;18.28;56.62;101514.14;2304376;76;51284;-73
2023/04/02 11:17:46;;;;;;;;;;;;;;;18.34;56.48;101514.86;2330656;76;50575;-72
2023/04/02 11:20:50;;;;;;;;;;;;;;;18.33;56.42;101519.86;2336027;76;51680;-74
2023/04/02 11:24:01;;;;;;;;;;;;;;;18.30;56.67;101528.22;2336542;76;50288;-72
2023/04/02 11:27:16;;;;;;;;;;;;;;;18.31;56.96;101530.39;2324046;76;52700;-75
2023/04/02 11:30:25;;;;;;;;;;;;;;;18.28;57.41;101544.95;2336241;76;51553;-73
2023/04/02 11:33:34;;;;;;;;;;;;;;;18.26;57.55;101534.89;2329314;76;50853;-71
2023/04/02 11:36:52;;;;;;;;;;;;;;;18.21;58.06;101546.10;2319140;76;50356;-73
2023/04/02 11:39:57;;;;;;;;;;;;;;;18.12;58.91;101548.88;2315778;76;52575;-73
2023/04/02 11:43:00;;;;;;;;;;;;;;;18.08;59.23;101552.36;2318900;75;50500;-74
2023/04/02 11:46:03;;;;;;;;;;;;;;;18.08;59.37;101559.56;2319529;75;51466;-72
2023/04/02 11:49:22;;;;;;;;;;;;;;;18.04;59.47;101555.86;2319030;76;51617;-74
2023/04/02 11:52:25;;;;;;;;;;;;;;;18.01;59.89;101566.89;2318910;76;51523;-74
2023/04/02 11:55:28;;;;;;;;;;;;;;;18.01;59.97;101560.20;2342862;75;50687;-74
2023/04/02 11:58:31;;;;;;;;;;;;;;;18.02;60.03;101560.53;2319086;76;51491;-74
2023/04/02 12:01:38;;;;;;;;;;;;;;;18.02;60.06;101562.37;2316453;76;51566;-76
2023/04/02 12:04:54;;;;;;;;;;;;;;;18.01;60.11;101568.23;2326062;76;52412;-73
2023/04/02 12:07:57;;;;;;;;;;;;;;;18.00;60.28;101569.72;2336441;76;51539;-73
2023/04/02 12:11:02;;;;;;;;;;;;;;;18.00;60.43;101569.21;2336400;76;51365;-73
2023/04/02 12:14:08;;;;;;;;;;;;;;;17.98;60.47;101573.91;2336540;76;52494;-74
2023/04/02 12:17:14;;;;;;;;;;;;;;;17.96;60.59;101567.86;2335550;76;51524;-76
2023/04/02 12:20:20;;;;;;;;;;;;;;;17.96;60.60;101575.06;2326508;76;51481;-76
2023/04/02 12:23:30;;;;;;;;;;;;;;;17.94;60.75;101573.86;2336640;76;50347;-77
2023/04/02 12:26:36;;;;;;;;;;;;;;;17.93;61.02;101571.33;2336690;76;50474;-77
2023/04/02 12:29:37;;;;;;;;;;;;;;;17.92;60.86;101583.05;2336488;76;22409;-77
2023/04/02 12:32:39;;;;;;;;;;;;;;;17.91;60.99;101591.59;2325514;76;51486;-76
2023/04/02 12:35:41;;;;;;;;;;;;;;;17.94;60.90;101595.79;2351314;75;49554;-76
2023/04/02 12:38:43;;;;;;;;;;;;;;;17.94;61.04;101595.79;2338371;76;50450;-76
2023/04/02 12:41:45;;;;;;;;;;;;;;;17.93;61.16;101596.77;2359101;75;52596;-75
2023/04/02 12:44:50;;;;;;;;;;;;;;;17.93;61.35;101597.63;2359508;75;51764;-74
2023/04/02 12:47:52;;;;;;;;;;;;;;;18.07;60.84;101602.91;2336885;75;50298;-76
2023/04/02 12:50:53;;;;;;;;;;;;;;;18.20;60.17;101610.54;2336678;76;51554;-75
2023/04/02 12:53:56;;;;;;;;;;;;;;;18.27;59.84;101604.39;2358368;75;52248;-75
2023/04/02 12:56:59;;;;;;;;;;;;;;;18.34;59.64;101604.62;2337114;75;50501;-75
2023/04/02 13:00:04;;;;;;;;;;;;;;;18.36;59.65;101603.94;2339790;74;51564;-75
2023/04/02 13:03:07;;;;;;;;;;;;;;;18.38;59.63;101605.12;2340278;75;22676;-76
2023/04/02 13:06:20;;;;;;;;;;;;;;;18.35;59.75;101610.81;2331735;76;52672;-74
2023/04/02 13:09:26;;;;;;;;;;;;;;;18.33;59.82;101609.61;2336751;76;51554;-75
2023/04/02 13:12:32;;;;;;;;;;;;;;;18.28;59.91;101608.74;2333388;76;50309;-74
2023/04/02 13:15:35;;;;;;;;;;;;;;;18.29;59.80;101610.95;2336900;76;50137;-75
2023/04/02 13:18:37;;;;;;;;;;;;;;;18.33;59.73;101605.59;2337108;76;50307;-73
2023/04/02 13:21:38;;;;;;;;;;;;;;;18.29;59.40;101598.89;2304492;76;51243;-76
2023/04/02 13:24:40;;;;;;;;;;;;;;;18.18;59.57;101605.33;2337375;76;50739;-75
2023/04/02 13:27:42;;;;;;;;;;;;;;;18.08;60.03;101608.59;2337077;76;50683;-74
2023/04/02 13:30:45;;;;;;;;;;;;;;;18.03;60.29;101610.44;2336738;76;51438;-74
2023/04/02 13:33:46;;;;;;;;;;;;;;;18.03;60.39;101610.44;2257948;77;51768;-75
2023/04/02 13:36:48;;;;;;;;;;;;;;;18.04;60.35;101617.96;2278309;77;50761;-76
2023/04/02 13:39:49;;;;;;;;;;;;;;;18.00;60.58;101615.23;2297131;77;51436;-74
2023/04/02 13:42:51;;;;;;;;;;;;;;;17.97;60.67;101616.39;2278238;77;51473;-75
2023/04/02 13:45:52;;;;;;;;;;;;;;;17.95;60.70;101621.05;2278134;77;52343;-75
2023/04/02 13:48:54;;;;;;;;;;;;;;;17.93;60.76;101629.77;2297378;77;50342;-75
2023/04/02 13:52:01;;;;;;;;;;;;;;;17.91;60.78;101621.04;2297180;77;50662;-75
2023/04/02 13:55:03;;;;;;;;;;;;;;;18.09;60.26;101630.39;2297325;77;51651;-77
2023/04/02 13:58:05;;;;;;;;;;;;;;;18.13;59.95;101629.56;2297398;77;50406;-76
2023/04/02 14:01:07;;;;;;;;;;;;;;;18.22;59.75;101638.02;2270675;77;50679;-74
2023/04/02 14:04:09;;;;;;;;;;;;;;;18.20;59.79;101640.84;2283964;77;50717;-75
2023/04/02 14:07:22;;;;;;;;;;;;;;;18.21;59.73;101634.98;2297352;76;50718;-75
2023/04/02 14:10:34;;;;;;;;;;;;;;;18.24;59.70;101634.69;2278003;77;52589;-75
2023/04/02 14:13:46;;;;;;;;;;;;;;;18.20;59.98;101638.66;2297707;77;50066;-76
2023/04/02 14:16:52;;;;;;;;;;;;;;;18.23;59.99;101639.69;2297265;76;51539;-75
2023/04/02 14:19:55;;;;;;;;;;;;;;;18.07;60.31;101641.75;2281354;77;51885;-76
2023/04/02 14:22:59;;;;;;;;;;;;;;;18.03;60.41;101647.92;2278254;77;52603;-77
2023/04/02 14:26:08;;;;;;;;;;;;;;;18.10;60.61;101649.97;2297443;77;50473;-76
2023/04/02 14:29:14;;;;;;;;;;;;;;;18.16;60.21;101650.67;2278151;77;52565;-76
2023/04/02 14:32:30;;;;;;;;;;;;;;;18.19;60.02;101654.41;2287783;77;51582;-76
2023/04/02 14:35:33;;;;;;;;;;;;;;;18.27;59.81;101665.18;2311032;76;51709;-75
2023/04/02 14:38:41;;;;;;;;;;;;;;;18.36;59.46;101662.05;2323276;76;50701;-75
2023/04/02 14:41:44;;;;;;;;;;;;;;;18.36;59.44;101666.91;2323449;76;22320;-74
2023/04/02 14:44:50;;;;;;;;;;;;;;;18.30;59.53;101667.54;2322559;76;51555;-75
2023/04/02 14:47:53;;;;;;;;;;;;;;;18.27;59.71;101665.18;2311992;76;52759;-74
2023/04/02 14:50:56;;;;;;;;;;;;;;;18.26;59.77;101679.55;2322980;76;50857;-75
2023/04/02 14:54:00;;;;;;;;;;;;;;;18.25;59.95;101679.22;2323454;76;50811;-75
2023/04/02 14:57:17;;;;;;;;;;;;;;;18.28;59.88;101684.27;2323528;76;51538;-76
2023/04/02 15:00:26;;;;;;;;;;;;;;;18.18;60.14;101681.67;2323536;76;21789;-76
2023/04/02 15:03:32;;;;;;;;;;;;;;;18.28;59.93;101688.28;2308592;76;50329;-75
2023/04/02 15:06:36;;;;;;;;;;;;;;;18.26;59.91;101688.93;2322331;76;51476;-76
2023/04/02 15:09:39;;;;;;;;;;;;;;;18.21;59.98;101689.89;2321269;76;51629;-77
2023/04/02 15:12:41;;;;;;;;;;;;;;;18.22;60.00;101692.94;2293570;76;51259;-77
2023/04/02 15:15:44;;;;;;;;;;;;;;;18.20;60.26;101689.56;2322873;76;50408;-78
2023/04/02 15:18:48;;;;;;;;;;;;;;;18.17;60.41;101695.23;2319773;76;51548;-76
2023/04/02 15:21:51;;;;;;;;;;;;;;;18.24;60.31;101703.00;2322659;76;51448;-75
2023/04/02 15:25:03;;;;;;;;;;;;;;;18.08;60.27;101694.81;2293390;76;52563;-76
2023/04/02 15:28:18;;;;;;;;;;;;;;;17.98;60.81;101711.81;2323484;76;50708;-77
2023/04/02 15:31:20;;;;;;;;;;;;;;;17.93;60.93;101711.44;2322723;76;50706;-77
2023/04/02 15:34:23;;;;;;;;;;;;;;;18.05;60.66;101715.55;2294721;76;51414;-76
2023/04/02 15:37:33;;;;;;;;;;;;;;;18.12;60.41;101719.80;2310635;77;52426;-77
2023/04/02 15:40:45;;;;;;;;;;;;;;;18.24;60.12;101727.95;2318733;76;51551;-76
2023/04/02 15:44:04;;;;;;;;;;;;;;;18.36;59.64;101733.89;2318897;76;50228;-77
2023/04/02 15:47:20;;;;;;;;;;;;;;;18.35;59.53;101738.08;2318923;76;50310;-76